Time;durP1;ratioP1;P1;durP2;ratioP2;P2;SDS_P1;SDS_P2;PMS_P1;PMS_P2;Temp;Humidity;BMP_temperature;BMP_pressure;BME280_temperature;BME280_humidity;BME280_pressure;Samples;Min_cycle;Max_cycle;Signal;HPM_P1;HPM_P2
2023/01/04 00:00:23;;;;;;;3.70;1.98;;;8.10;99.90;;;;;;5017984;28;20041;-69
2023/01/04 00:02:48;;;;;;;1.52;0.95;;;8.00;99.90;;;;;;5018039;28;20041;-69
2023/01/04 00:05:14;;;;;;;4.68;1.60;;;8.10;99.90;;;;;;5035583;28;20516;-69
2023/01/04 00:07:40;;;;;;;5.43;1.45;;;8.00;99.90;;;;;;5017859;28;20122;-69
2023/01/04 00:10:05;;;;;;;3.55;2.08;;;8.00;99.90;;;;;;5018057;28;20045;-69
2023/01/04 00:12:31;;;;;;;0.98;0.60;;;8.10;99.90;;;;;;5017785;28;20045;-69
2023/01/04 00:14:56;;;;;;;6.15;1.20;;;8.00;99.90;;;;;;5017766;28;20123;-69
2023/01/04 00:17:22;;;;;;;1.13;0.82;;;8.10;99.90;;;;;;5017697;28;20041;-69
2023/01/04 00:19:48;;;;;;;2.08;1.20;;;8.10;99.90;;;;;;5017653;28;20049;-69
2023/01/04 00:22:13;;;;;;;1.75;1.40;;;8.10;99.90;;;;;;5017694;28;20547;-69
2023/01/04 00:24:39;;;;;;;2.45;1.38;;;8.10;99.90;;;;;;5035270;28;20060;-69
2023/01/04 00:27:04;;;;;;;0.85;0.82;;;8.10;99.90;;;;;;5035598;28;20068;-69
2023/01/04 00:29:30;;;;;;;1.88;0.88;;;8.10;99.90;;;;;;5017403;28;20033;-69
2023/01/04 00:31:56;;;;;;;2.60;1.52;;;8.20;99.90;;;;;;5035330;28;20037;-69
2023/01/04 00:34:21;;;;;;;1.63;0.90;;;8.10;99.90;;;;;;5017308;28;20049;-69
2023/01/04 00:36:47;;;;;;;1.45;0.95;;;8.10;99.90;;;;;;5017685;28;20104;-69
2023/01/04 00:39:15;;;;;;;3.00;1.25;;;8.20;99.90;;;;;;5034434;28;20046;-69
2023/01/04 00:41:52;;;;;;;4.47;1.65;;;8.20;99.90;;;;;;5034973;28;20473;-70
2023/01/04 00:44:20;;;;;;;3.95;1.23;;;8.20;99.90;;;;;;5035168;28;20549;-70
2023/01/04 00:46:46;;;;;;;4.78;1.20;;;8.20;99.90;;;;;;5017416;28;20440;-69
2023/01/04 00:49:12;;;;;;;4.60;1.50;;;8.10;99.90;;;;;;5017344;28;20056;-70
2023/01/04 00:51:41;;;;;;;0.45;0.40;;;8.10;99.90;;;;;;5035305;28;20111;-69
2023/01/04 00:54:11;;;;;;;6.57;1.48;;;8.10;99.90;;;;;;5017267;28;20159;-69
2023/01/04 00:56:36;;;;;;;1.27;0.97;;;8.00;99.90;;;;;;5016980;28;20120;-68
2023/01/04 00:59:03;;;;;;;2.35;1.27;;;7.90;99.90;;;;;;5034943;28;20109;-69
2023/01/04 01:01:31;;;;;;;5.10;0.65;;;7.90;99.90;;;;;;5034826;28;20037;-71
2023/01/04 01:04:01;;;;;;;1.25;1.00;;;7.90;99.90;;;;;;5034885;28;20033;-70
2023/01/04 01:06:28;;;;;;;3.00;0.75;;;7.90;99.90;;;;;;5013434;28;20141;-69
2023/01/04 01:08:53;;;;;;;2.28;0.98;;;7.90;99.90;;;;;;5013760;28;20124;-70
2023/01/04 01:11:19;;;;;;;2.05;1.10;;;7.80;99.90;;;;;;5013323;28;20128;-69
2023/01/04 01:13:46;;;;;;;2.53;1.55;;;7.80;99.90;;;;;;5013354;28;20038;-69
2023/01/04 01:16:13;;;;;;;1.95;1.15;;;7.80;99.90;;;;;;5013344;28;20081;-70
2023/01/04 01:18:41;;;;;;;10.48;1.35;;;8.50;99.90;;;;;;5013257;28;20053;-69
2023/01/04 01:21:15;;;;;;;4.03;1.58;;;7.80;99.90;;;;;;5013297;28;20408;-69
2023/01/04 01:23:40;;;;;;;5.20;1.15;;;7.90;99.90;;;;;;5013184;28;20084;-70
2023/01/04 01:26:08;;;;;;;0.43;0.43;;;7.90;99.90;;;;;;5013437;28;20085;-69
2023/01/04 01:28:35;;;;;;;0.85;0.57;;;7.90;99.90;;;;;;5013191;28;20508;-70
2023/01/04 01:31:15;;;;;;;0.75;0.68;;;7.90;99.90;;;;;;5013003;28;20038;-69
2023/01/04 01:33:42;;;;;;;3.17;1.17;;;7.90;99.90;;;;;;5013315;28;20052;-69
2023/01/04 01:36:09;;;;;;;2.70;1.80;;;8.00;99.90;;;;;;5013263;28;20041;-69
2023/01/04 01:38:36;;;;;;;0.73;0.63;;;7.90;99.90;;;;;;5014530;28;20394;-69
2023/01/04 01:41:03;;;;;;;4.50;1.50;;;7.90;99.90;;;;;;5013139;28;20048;-69
2023/01/04 01:43:58;;;;;;;2.35;1.20;;;7.90;99.90;;;;;;5013012;28;20477;-70
2023/01/04 01:46:42;;;;;;;2.55;1.10;;;7.80;99.90;;;;;;5012778;28;20104;-69
2023/01/04 01:49:24;;;;;;;2.17;1.83;;;7.80;99.90;;;;;;5014303;28;20041;-69
2023/01/04 01:51:51;;;;;;;1.48;1.13;;;7.80;99.90;;;;;;4995630;28;20072;-70
2023/01/04 01:54:25;;;;;;;2.40;1.10;;;7.80;99.90;;;;;;5012911;28;20092;-69
2023/01/04 01:56:52;;;;;;;0.77;0.77;;;7.90;99.90;;;;;;5012624;28;20460;-69
2023/01/04 01:59:19;;;;;;;5.20;1.35;;;7.80;99.90;;;;;;5012547;28;20406;-69
2023/01/04 02:01:45;;;;;;;1.75;0.90;;;7.80;99.90;;;;;;5014124;28;20073;-69
2023/01/04 02:04:12;;;;;;;1.77;0.80;;;7.80;99.90;;;;;;5013772;28;20084;-69
2023/01/04 02:06:46;;;;;;;0.77;0.60;;;7.90;99.90;;;;;;5031678;28;20099;-69
2023/01/04 02:09:12;;;;;;;3.25;1.17;;;7.80;99.90;;;;;;5033663;28;20045;-69
2023/01/04 02:11:38;;;;;;;0.95;0.50;;;7.80;99.90;;;;;;5015771;28;20087;-69
2023/01/04 02:17:14;;;;;;;1.35;0.55;;;7.90;99.90;;;;;;5033528;28;20037;-69
2023/01/04 02:20:07;;;;;;;1.20;0.82;;;7.90;99.90;;;;;;5015442;28;20435;-69
2023/01/04 02:22:56;;;;;;;2.30;1.05;;;7.90;99.90;;;;;;5033389;28;20041;-69
2023/01/04 02:26:00;;;;;;;1.38;0.80;;;7.90;99.90;;;;;;5015420;28;20049;-69
2023/01/04 02:28:32;;;;;;;2.70;0.85;;;7.90;99.90;;;;;;5015354;28;20041;-69
2023/01/04 02:31:06;;;;;;;0.43;0.43;;;7.90;99.90;;;;;;5033376;28;20045;-69
2023/01/04 02:33:50;;;;;;;0.77;0.55;;;7.90;99.90;;;;;;5032854;28;20085;-69
2023/01/04 02:36:22;;;;;;;4.47;0.43;;;7.90;99.90;;;;;;5033196;28;20116;-69
2023/01/04 02:39:07;;;;;;;3.40;0.68;;;7.90;99.90;;;;;;5032915;28;20176;-68
2023/01/04 02:41:56;;;;;;;0.98;0.68;;;7.90;99.90;;;;;;5033164;28;20042;-69
2023/01/04 02:44:52;;;;;;;2.55;0.93;;;7.90;99.90;;;;;;5015156;28;20041;-69
2023/01/04 02:50:57;;;;;;;1.98;0.40;;;7.90;99.90;;;;;;5033069;28;20045;-69
2023/01/04 02:53:27;;;;;;;0.40;0.40;;;8.00;99.90;;;;;;5022022;28;20057;-69
2023/01/04 02:55:55;;;;;;;3.35;1.08;;;8.00;99.90;;;;;;5032746;28;20045;-68
2023/01/04 02:58:52;;;;;;;0.20;0.20;;;8.10;99.90;;;;;;5032978;28;20511;-69
2023/01/04 03:07:16;;;;;;;0.95;0.73;;;8.10;99.90;;;;;;5019038;28;20053;-68
2023/01/04 03:09:48;;;;;;;2.33;0.47;;;8.20;99.90;;;;;;5037031;28;20556;-68
2023/01/04 03:12:32;;;;;;;;;;;8.50;99.90;;;;;;5037306;28;20508;-68
2023/01/04 03:15:06;;;;;;;1.80;1.08;;;8.20;99.90;;;;;;5018904;28;20316;-69
2023/01/04 03:17:46;;;;;;;0.20;0.20;;;8.20;99.90;;;;;;5019183;28;20084;-69
2023/01/04 03:20:15;;;;;;;0.67;0.60;;;8.20;99.90;;;;;;5036856;28;20034;-68
2023/01/04 03:37:17;;;;;;;0.98;0.57;;;8.40;99.90;;;;;;5036152;28;20041;-69
2023/01/04 03:48:51;;;;;;;1.75;0.47;;;8.60;99.90;;;;;;5036229;28;20512;-70
2023/01/04 03:51:29;;;;;;;3.58;0.93;;;8.60;99.90;;;;;;5024949;28;20049;-69
2023/01/04 03:54:23;;;;;;;1.27;0.50;;;8.70;99.90;;;;;;5018439;28;20088;-69
2023/01/04 03:56:50;;;;;;;0.50;0.50;;;8.70;99.90;;;;;;5018113;28;20096;-69
2023/01/04 03:59:16;;;;;;;0.60;0.40;;;8.80;99.90;;;;;;5036067;28;20052;-69
2023/01/04 04:01:43;;;;;;;0.35;0.28;;;8.80;99.90;;;;;;5036092;28;20119;-69
2023/01/04 04:09:38;;;;;;;1.02;0.70;;;9.00;99.90;;;;;;5035852;28;20057;-70
2023/01/04 04:12:04;;;;;;;1.02;0.70;;;9.10;99.90;;;;;;5017954;28;20063;-69
2023/01/04 04:14:29;;;;;;;0.75;0.55;;;9.10;99.90;;;;;;5017108;28;20041;-69
2023/01/04 04:16:55;;;;;;;0.85;0.57;;;9.10;99.90;;;;;;5018093;28;20041;-69
2023/01/04 04:19:21;;;;;;;1.15;0.68;;;9.20;99.90;;;;;;5017712;28;20073;-69
2023/01/04 04:21:46;;;;;;;1.17;0.52;;;9.30;99.90;;;;;;5035431;28;20037;-69
2023/01/04 04:24:17;;;;;;;6.60;0.63;;;9.20;99.90;;;;;;5035562;28;20045;-69
2023/01/04 04:26:43;;;;;;;0.70;0.68;;;9.20;99.90;;;;;;5035646;28;20397;-69
2023/01/04 04:29:08;;;;;;;0.60;0.60;;;9.30;99.90;;;;;;5017762;28;20076;-69
2023/01/04 04:31:34;;;;;;;1.25;0.75;;;9.30;99.90;;;;;;5035108;28;20042;-69
2023/01/04 04:33:59;;;;;;;0.50;0.50;;;9.30;99.90;;;;;;5035487;28;20037;-70
2023/01/04 04:36:25;;;;;;;0.40;0.30;;;9.40;99.90;;;;;;5017473;28;20433;-70
2023/01/04 04:38:51;;;;;;;0.50;0.50;;;9.40;99.90;;;;;;5017624;28;20037;-69
2023/01/04 04:44:00;;;;;;;0.30;0.30;;;9.50;99.90;;;;;;5035231;28;20401;-69
2023/01/04 04:46:26;;;;;;;0.60;0.50;;;9.50;99.90;;;;;;5000926;28;20052;-70
2023/01/04 04:48:52;;;;;;;0.50;0.50;;;9.50;99.90;;;;;;5017172;28;20072;-69
2023/01/04 04:51:17;;;;;;;0.60;0.52;;;9.60;99.90;;;;;;5034757;28;20072;-70
2023/01/04 04:53:43;;;;;;;0.50;0.50;;;9.60;99.90;;;;;;5017108;28;20118;-70
2023/01/04 04:56:09;;;;;;;0.65;0.57;;;9.60;99.90;;;;;;5017104;28;20080;-70
2023/01/04 04:58:35;;;;;;;0.40;0.40;;;10.20;99.90;;;;;;5017198;28;20048;-69
2023/01/04 05:01:00;;;;;;;0.98;0.77;;;9.70;99.90;;;;;;5016927;28;20037;-69
2023/01/04 05:03:26;;;;;;;0.93;0.77;;;9.20;99.90;;;;;;5017111;28;20045;-69
2023/01/04 05:05:51;;;;;;;1.05;0.70;;;9.90;99.90;;;;;;5034568;28;20060;-69
2023/01/04 05:08:17;;;;;;;0.55;0.55;;;9.80;99.90;;;;;;5016794;28;20049;-69
2023/01/04 05:10:43;;;;;;;1.05;0.80;;;10.40;99.90;;;;;;5016800;28;20581;-70
2023/01/04 05:13:11;;;;;;;0.82;0.70;;;9.70;99.90;;;;;;5016560;28;20135;-69
2023/01/04 05:15:42;;;;;;;0.95;0.82;;;9.90;99.90;;;;;;5016631;28;20041;-69
2023/01/04 05:18:09;;;;;;;1.13;0.90;;;;;;;;;;5016613;28;20041;-69
2023/01/04 05:20:35;;;;;;;1.10;0.63;;;9.90;99.90;;;;;;5016545;28;20045;-69
2023/01/04 05:23:01;;;;;;;0.80;0.47;;;9.90;99.90;;;;;;5034504;28;20404;-69
2023/01/04 05:25:27;;;;;;;3.17;1.20;;;10.00;99.90;;;;;;5016617;28;20041;-69
2023/01/04 05:27:53;;;;;;;1.63;1.17;;;10.00;99.90;;;;;;5034443;28;20073;-69
2023/01/04 05:33:04;;;;;;;0.95;0.77;;;10.10;99.90;;;;;;5034245;28;20061;-69
2023/01/04 05:35:30;;;;;;;0.70;0.60;;;10.20;99.90;;;;;;5016964;28;20045;-68
2023/01/04 05:37:55;;;;;;;1.52;0.77;;;10.20;99.90;;;;;;5016330;28;20048;-69
2023/01/04 05:40:22;;;;;;;2.20;1.08;;;10.40;99.90;;;;;;4999893;28;20179;-68
2023/01/04 05:42:48;;;;;;;0.65;0.55;;;10.20;99.90;;;;;;5034158;28;20134;-68
2023/01/04 05:45:14;;;;;;;0.82;0.65;;;10.20;99.90;;;;;;5016490;28;20101;-68
2023/01/04 05:47:40;;;;;;;1.08;0.75;;;10.20;99.90;;;;;;5034054;28;20052;-68
2023/01/04 05:50:08;;;;;;;1.88;1.23;;;10.30;99.90;;;;;;5016389;28;20064;-68
2023/01/04 05:52:33;;;;;;;1.17;0.88;;;10.20;99.90;;;;;;5034013;28;20045;-68
2023/01/04 05:54:59;;;;;;;1.40;0.98;;;10.30;99.90;;;;;;5033903;28;20099;-68
2023/01/04 05:57:25;;;;;;;1.95;1.05;;;10.30;99.90;;;;;;5033867;28;20523;-69
2023/01/04 05:59:51;;;;;;;1.02;0.93;;;10.40;99.90;;;;;;5033768;28;20455;-68
2023/01/04 06:02:19;;;;;;;0.73;0.68;;;10.40;99.90;;;;;;5033861;28;20037;-69
2023/01/04 06:04:46;;;;;;;3.20;1.50;;;10.40;99.90;;;;;;5015629;28;20067;-69
2023/01/04 06:07:12;;;;;;;2.17;1.17;;;10.40;99.90;;;;;;5015691;28;20042;-71
2023/01/04 06:09:38;;;;;;;1.83;1.33;;;10.40;99.90;;;;;;4999288;28;20142;-68
2023/01/04 06:12:04;;;;;;;1.95;1.30;;;10.40;99.90;;;;;;5033472;28;20464;-68
2023/01/04 06:14:29;;;;;;;1.48;1.20;;;10.30;99.90;;;;;;5033228;28;20040;-69
2023/01/04 06:16:55;;;;;;;2.30;1.30;;;10.30;99.90;;;;;;5033521;28;20044;-69
2023/01/04 06:19:20;;;;;;;1.83;1.38;;;10.40;99.90;;;;;;5015742;28;20069;-71
2023/01/04 06:21:46;;;;;;;1.50;0.85;;;10.40;99.90;;;;;;5015449;28;20042;-69
2023/01/04 06:24:12;;;;;;;1.75;1.15;;;10.40;99.90;;;;;;5015436;28;20504;-68
2023/01/04 06:26:37;;;;;;;2.30;1.10;;;10.40;99.90;;;;;;5015466;28;20041;-69
2023/01/04 06:29:03;;;;;;;2.17;1.20;;;10.40;99.90;;;;;;5015596;28;20042;-69
2023/01/04 06:31:29;;;;;;;4.93;1.48;;;10.40;99.90;;;;;;5015463;28;20045;-69
2023/01/04 06:33:54;;;;;;;3.33;1.10;;;10.40;99.90;;;;;;5015359;28;20091;-69
2023/01/04 06:36:20;;;;;;;0.65;0.65;;;10.90;99.90;;;;;;5033281;28;20545;-68
2023/01/04 06:38:47;;;;;;;1.58;1.02;;;10.50;99.90;;;;;;5014748;28;20068;-69
2023/01/04 06:41:13;;;;;;;2.13;0.98;;;10.50;99.90;;;;;;5015555;28;20045;-69
2023/01/04 06:43:38;;;;;;;1.42;1.10;;;10.50;99.90;;;;;;5015173;28;20042;-69
2023/01/04 06:46:04;;;;;;;1.20;0.77;;;10.50;99.90;;;;;;5015203;28;20041;-69
2023/01/04 06:48:29;;;;;;;1.02;0.55;;;10.50;99.90;;;;;;5015143;28;20520;-69
2023/01/04 06:50:55;;;;;;;0.93;0.68;;;10.50;99.90;;;;;;5015226;28;20041;-69
2023/01/04 06:53:20;;;;;;;1.42;1.00;;;10.50;99.90;;;;;;4998710;28;20087;-70
2023/01/04 06:55:46;;;;;;;0.82;0.65;;;10.60;99.90;;;;;;5015163;28;20041;-69
2023/01/04 06:58:12;;;;;;;1.40;0.60;;;10.50;99.90;;;;;;5015113;28;20033;-68
2023/01/04 07:00:37;;;;;;;1.08;0.70;;;10.60;99.90;;;;;;5015089;28;20046;-69
2023/01/04 07:03:03;;;;;;;0.82;0.50;;;10.60;99.90;;;;;;5033035;28;20064;-68
2023/01/04 07:05:28;;;;;;;0.95;0.63;;;10.50;99.90;;;;;;5014850;28;20053;-68
2023/01/04 07:07:54;;;;;;;0.70;0.47;;;10.50;99.90;;;;;;5015076;28;20525;-68
2023/01/04 07:10:19;;;;;;;1.90;0.80;;;10.60;99.90;;;;;;5015208;28;20053;-68
2023/01/04 07:12:45;;;;;;;1.48;0.73;;;10.50;99.90;;;;;;5015177;28;20067;-68
2023/01/04 07:15:11;;;;;;;1.60;0.75;;;10.60;99.90;;;;;;5032913;28;20465;-67
2023/01/04 07:17:37;;;;;;;0.57;0.45;;;10.60;99.90;;;;;;5032835;28;20041;-68
2023/01/04 07:20:03;;;;;;;0.70;0.60;;;10.60;99.90;;;;;;5014829;28;20378;-70
2023/01/04 07:22:29;;;;;;;1.95;0.68;;;10.50;99.90;;;;;;5014771;28;20044;-69
2023/01/04 07:24:54;;;;;;;0.32;0.32;;;10.60;99.90;;;;;;5014745;28;20095;-70
2023/01/04 07:27:20;;;;;;;0.93;0.70;;;10.60;99.90;;;;;;5014729;28;20069;-70
2023/01/04 07:29:46;;;;;;;0.30;0.30;;;10.80;99.90;;;;;;4998524;28;20037;-68
2023/01/04 07:32:11;;;;;;;1.15;0.65;;;10.60;99.90;;;;;;5014725;28;20091;-70
2023/01/04 07:34:38;;;;;;;0.63;0.35;;;10.60;99.90;;;;;;5014838;28;20095;-74
2023/01/04 07:37:08;;;;;;;3.92;1.17;;;11.10;99.90;;;;;;5014943;28;20470;-70
2023/01/04 07:39:33;;;;;;;0.73;0.60;;;10.60;99.90;;;;;;5014730;28;20564;-69
2023/01/04 07:41:59;;;;;;;1.15;0.73;;;10.60;99.90;;;;;;4998502;28;20116;-69
2023/01/04 07:44:26;;;;;;;0.77;0.55;;;10.60;99.90;;;;;;5014931;28;20128;-69
2023/01/04 07:46:52;;;;;;;0.30;0.30;;;10.60;99.90;;;;;;5014497;28;20041;-70
2023/01/04 07:49:18;;;;;;;0.55;0.32;;;10.60;99.90;;;;;;5015095;28;20132;-70
2023/01/04 07:51:46;;;;;;;0.65;0.60;;;10.60;99.90;;;;;;5017973;28;20132;-71
2023/01/04 07:54:12;;;;;;;0.85;0.60;;;10.60;99.90;;;;;;5018090;28;20033;-69
2023/01/04 07:56:37;;;;;;;1.02;0.82;;;10.60;99.90;;;;;;5017954;28;20056;-71
2023/01/04 07:59:08;;;;;;;0.75;0.70;;;10.60;99.90;;;;;;5017991;28;20405;-70
2023/01/04 08:01:34;;;;;;;0.73;0.70;;;10.60;99.90;;;;;;5017916;28;20083;-71
2023/01/04 08:04:00;;;;;;;1.20;0.55;;;10.70;99.90;;;;;;5017865;28;20040;-70
2023/01/04 08:06:26;;;;;;;1.45;0.80;;;10.70;99.90;;;;;;5017602;28;20060;-70
2023/01/04 08:08:52;;;;;;;1.23;0.55;;;10.60;99.90;;;;;;5001707;28;20041;-69
2023/01/04 08:11:21;;;;;;;1.63;0.88;;;10.60;99.90;;;;;;5017723;28;20033;-70
2023/01/04 08:13:47;;;;;;;0.63;0.57;;;10.60;99.90;;;;;;5035376;28;20046;-70
2023/01/04 08:16:30;;;;;;;0.73;0.60;;;10.70;99.90;;;;;;5017929;28;20527;-69
2023/01/04 08:18:57;;;;;;;0.63;0.50;;;10.70;99.90;;;;;;5017853;28;20084;-69
2023/01/04 08:21:24;;;;;;;1.05;0.75;;;10.70;99.90;;;;;;5016726;28;20037;-69
2023/01/04 08:23:51;;;;;;;1.08;0.60;;;10.70;99.90;;;;;;5016542;28;20034;-69
2023/01/04 08:26:17;;;;;;;0.70;0.60;;;10.70;99.90;;;;;;5016782;28;20489;-69
2023/01/04 08:28:43;;;;;;;0.88;0.63;;;10.70;99.90;;;;;;5016734;28;20125;-70
2023/01/04 08:31:14;;;;;;;1.23;0.60;;;10.70;99.90;;;;;;5016656;28;20048;-70
2023/01/04 08:33:40;;;;;;;2.10;0.88;;;10.70;99.90;;;;;;5016409;28;20555;-70
2023/01/04 08:36:08;;;;;;;1.02;0.80;;;10.70;99.90;;;;;;5016721;28;20041;-70
2023/01/04 08:38:33;;;;;;;1.10;0.73;;;10.70;99.90;;;;;;5016311;28;20041;-69
2023/01/04 08:40:59;;;;;;;1.05;0.70;;;10.70;99.90;;;;;;5016507;28;20125;-70
2023/01/04 08:43:24;;;;;;;1.05;0.60;;;10.90;99.90;;;;;;5016529;28;20115;-70
2023/01/04 08:45:50;;;;;;;2.28;1.13;;;10.80;99.90;;;;;;5016291;28;20081;-70
2023/01/04 08:48:16;;;;;;;1.05;0.80;;;11.00;99.90;;;;;;5016535;28;20412;-69
2023/01/04 08:50:41;;;;;;;0.60;0.57;;;10.80;99.90;;;;;;5016435;28;20048;-70
2023/01/04 08:53:07;;;;;;;1.20;0.60;;;10.90;99.90;;;;;;5016038;28;20037;-70
2023/01/04 08:55:32;;;;;;;0.63;0.43;;;11.40;99.90;;;;;;5015872;28;20033;-70
2023/01/04 08:57:59;;;;;;;1.88;0.80;;;11.00;99.90;;;;;;5015971;28;20049;-70
2023/01/04 09:00:26;;;;;;;1.30;0.80;;;10.80;99.90;;;;;;5015424;28;20037;-70
2023/01/04 09:02:51;;;;;;;1.02;0.70;;;10.40;99.90;;;;;;5015856;28;20045;-70
2023/01/04 09:05:17;;;;;;;0.82;0.60;;;10.80;99.90;;;;;;5016075;28;20416;-70
2023/01/04 09:07:43;;;;;;;0.60;0.60;;;10.80;99.90;;;;;;5016288;28;20049;-70
2023/01/04 09:10:09;;;;;;;0.80;0.60;;;10.80;99.90;;;;;;5016048;28;20461;-70
2023/01/04 09:12:34;;;;;;;0.70;0.50;;;10.80;99.90;;;;;;5015681;28;20046;-70
2023/01/04 09:15:00;;;;;;;0.60;0.50;;;10.80;99.90;;;;;;5015805;28;20034;-69
2023/01/04 09:17:26;;;;;;;0.85;0.70;;;10.90;99.90;;;;;;5033674;28;20099;-70
2023/01/04 09:19:51;;;;;;;0.98;0.70;;;10.80;99.90;;;;;;5015551;28;20048;-70
2023/01/04 09:22:17;;;;;;;0.98;0.70;;;10.90;99.90;;;;;;5015487;28;20037;-70
2023/01/04 09:24:42;;;;;;;0.57;0.50;;;10.90;99.90;;;;;;5015825;28;20049;-70
2023/01/04 09:27:08;;;;;;;1.25;0.50;;;10.90;99.90;;;;;;5015766;28;20057;-71
2023/01/04 09:29:34;;;;;;;0.35;0.35;;;11.40;99.90;;;;;;5015414;28;20124;-70
2023/01/04 09:31:59;;;;;;;0.90;0.60;;;10.90;99.90;;;;;;5015464;28;20492;-70
2023/01/04 09:34:25;;;;;;;0.30;0.30;;;10.90;99.90;;;;;;5015475;28;20045;-70
2023/01/04 09:36:51;;;;;;;0.40;0.35;;;10.90;99.90;;;;;;5015194;28;20457;-70
2023/01/04 09:39:17;;;;;;;0.80;0.65;;;10.80;99.90;;;;;;4999120;28;20037;-70
2023/01/04 09:41:48;;;;;;;0.40;0.40;;;10.70;99.90;;;;;;4998831;28;20034;-71
2023/01/04 09:44:25;;;;;;;1.27;0.40;;;10.80;99.90;;;;;;4998877;28;20037;-70
2023/01/04 09:47:02;;;;;;;0.32;0.25;;;10.80;99.90;;;;;;5015284;28;20056;-71
2023/01/04 09:49:44;;;;;;;0.73;0.50;;;10.80;99.90;;;;;;4998702;28;20073;-70
2023/01/04 09:52:09;;;;;;;0.50;0.50;;;10.90;99.90;;;;;;5014852;28;20443;-70
2023/01/04 09:54:54;;;;;;;0.38;0.30;;;10.80;99.90;;;;;;5014883;28;20041;-70
2023/01/04 09:57:33;;;;;;;1.25;0.50;;;10.80;99.90;;;;;;5015055;28;20124;-71
2023/01/04 10:00:10;;;;;;;0.28;0.28;;;10.90;99.90;;;;;;5014859;28;20088;-70
2023/01/04 10:02:48;;;;;;;0.57;0.40;;;10.90;99.90;;;;;;5014809;28;20045;-70
2023/01/04 10:05:21;;;;;;;1.27;0.47;;;10.90;99.90;;;;;;5014617;28;20137;-70
2023/01/04 10:07:47;;;;;;;0.98;0.50;;;10.90;99.90;;;;;;5014985;28;20076;-71
2023/01/04 10:10:16;;;;;;;0.68;0.30;;;10.90;99.90;;;;;;5014646;28;20079;-70
2023/01/04 10:12:42;;;;;;;1.45;0.45;;;11.00;99.90;;;;;;4997611;28;20403;-70
2023/01/04 10:15:25;;;;;;;0.98;0.82;;;11.00;99.90;;;;;;5014561;28;20048;-70
2023/01/04 10:18:09;;;;;;;4.20;0.68;;;11.00;99.90;;;;;;4998371;28;20132;-70
2023/01/04 10:20:59;;;;;;;1.00;0.50;;;10.90;99.90;;;;;;5014803;28;20033;-70
2023/01/04 10:23:50;;;;;;;0.50;0.40;;;11.00;99.90;;;;;;5014431;28;20056;-70
2023/01/04 10:26:25;;;;;;;0.35;0.35;;;11.10;99.90;;;;;;5014406;28;20049;-72
2023/01/04 10:29:16;;;;;;;2.60;0.45;;;11.10;99.90;;;;;;5014758;28;20135;-71
2023/01/04 10:32:04;;;;;;;0.28;0.28;;;11.20;99.90;;;;;;5014191;28;20049;-71
2023/01/04 10:34:36;;;;;;;4.47;0.90;;;11.20;99.90;;;;;;5014286;28;20080;-70
2023/01/04 10:37:19;;;;;;;1.23;0.52;;;11.20;99.90;;;;;;5014549;28;20076;-70
2023/01/04 10:39:49;;;;;;;1.40;0.70;;;11.30;99.90;;;;;;5014328;28;20045;-70
2023/01/04 10:42:33;;;;;;;7.47;1.05;;;11.30;99.90;;;;;;5014428;28;20494;-70
2023/01/04 10:45:10;;;;;;;3.40;0.68;;;11.30;99.90;;;;;;5014435;28;20501;-70
2023/01/04 10:48:16;;;;;;;7.22;1.13;;;11.30;99.90;;;;;;5014204;28;20068;-70
2023/01/04 10:50:56;;;;;;;2.58;0.63;;;11.30;99.90;;;;;;4975639;28;20053;-70
2023/01/04 10:53:39;;;;;;;3.95;1.13;;;11.40;99.90;;;;;;5013970;28;20041;-71
2023/01/04 10:56:30;;;;;;;2.67;0.90;;;11.40;99.90;;;;;;5031864;28;20124;-71
2023/01/04 10:59:09;;;;;;;3.53;0.63;;;11.40;99.90;;;;;;5014733;28;20033;-71
2023/01/04 11:01:40;;;;;;;2.70;1.27;;;11.40;99.90;;;;;;5014333;28;20037;-70
2023/01/04 11:04:09;;;;;;;;;;;11.40;99.90;;;;;;4998172;28;20045;-71
2023/01/04 11:06:47;;;;;;;5.13;1.15;;;11.40;99.90;;;;;;5013950;28;19927;-71
2023/01/04 11:09:21;;;;;;;2.70;1.25;;;11.40;99.90;;;;;;5014037;28;20049;-72
2023/01/04 11:11:47;;;;;;;5.22;1.02;;;11.40;99.90;;;;;;4997879;28;20048;-72
2023/01/04 11:14:14;;;;;;;4.10;1.42;;;11.40;99.90;;;;;;5014085;28;20079;-70
2023/01/04 11:16:45;;;;;;;4.43;1.20;;;11.40;99.90;;;;;;5014217;28;20072;-70
2023/01/04 11:19:10;;;;;;;9.38;1.27;;;11.50;99.90;;;;;;5014307;28;20045;-70
2023/01/04 11:21:55;;;;;;;4.28;1.40;;;11.50;99.90;;;;;;5013914;28;20414;-70
2023/01/04 11:24:22;;;;;;;4.05;1.45;;;11.50;99.90;;;;;;5016190;28;20132;-70
2023/01/04 11:26:49;;;;;;;1.08;0.90;;;11.50;99.90;;;;;;5017856;28;20048;-70
2023/01/04 11:29:44;;;;;;;4.30;0.80;;;11.50;99.90;;;;;;5017781;28;20121;-70
2023/01/04 11:32:14;;;;;;;7.05;1.25;;;11.50;99.90;;;;;;5017688;28;20046;-70
2023/01/04 11:34:48;;;;;;;3.88;1.05;;;11.50;99.90;;;;;;5035359;28;20508;-70
2023/01/04 11:37:32;;;;;;;4.55;1.50;;;11.50;99.90;;;;;;5017524;28;20096;-70
2023/01/04 11:40:16;;;;;;;2.30;1.20;;;11.40;99.90;;;;;;5017454;28;20064;-70
2023/01/04 11:42:51;;;;;;;5.82;1.67;;;11.50;99.90;;;;;;5000931;28;20409;-70
2023/01/04 11:45:21;;;;;;;5.43;1.15;;;11.50;99.90;;;;;;5017367;28;20136;-70
2023/01/04 11:47:49;;;;;;;1.63;1.05;;;11.50;99.90;;;;;;5017705;28;20033;-69
2023/01/04 11:50:37;;;;;;;6.82;1.25;;;11.50;99.90;;;;;;5017658;28;20063;-70
2023/01/04 11:53:24;;;;;;;6.93;1.70;;;11.60;99.90;;;;;;5017158;28;20045;-70
2023/01/04 11:55:50;;;;;;;4.22;0.73;;;11.60;99.90;;;;;;5017482;28;20038;-75
2023/01/04 11:58:18;;;;;;;4.93;0.95;;;11.60;99.90;;;;;;5017316;28;20128;-69
2023/01/04 12:00:56;;;;;;;6.95;1.02;;;11.60;99.90;;;;;;5017155;28;20041;-69
2023/01/04 12:03:27;;;;;;;6.32;1.80;;;11.60;99.90;;;;;;5017309;28;20083;-69
2023/01/04 12:05:53;;;;;;;4.68;1.25;;;11.60;99.90;;;;;;5017103;28;20064;-69
2023/01/04 12:08:33;;;;;;;2.65;0.88;;;11.60;99.90;;;;;;5016971;28;20049;-69
2023/01/04 12:11:02;;;;;;;5.95;1.52;;;11.60;99.90;;;;;;5000915;28;20443;-69
2023/01/04 12:13:28;;;;;;;2.95;1.00;;;11.60;99.90;;;;;;5034854;28;20041;-70
2023/01/04 12:16:00;;;;;;;2.30;0.82;;;11.60;99.90;;;;;;5017171;28;20046;-69
2023/01/04 12:18:29;;;;;;;2.88;0.90;;;11.60;99.90;;;;;;5034892;28;20107;-69
2023/01/04 12:20:56;;;;;;;16.42;1.05;;;11.70;99.90;;;;;;5000335;28;20073;-69
2023/01/04 12:23:22;;;;;;;2.90;1.55;;;11.70;99.90;;;;;;5034794;28;20047;-69
2023/01/04 12:25:52;;;;;;;6.40;0.73;;;11.70;99.90;;;;;;5016885;28;20752;-69
2023/01/04 12:28:35;;;;;;;3.72;0.85;;;11.70;99.90;;;;;;5016645;28;20060;-69
2023/01/04 12:31:19;;;;;;;7.25;0.95;;;11.70;99.90;;;;;;5016552;28;20034;-69
2023/01/04 12:33:46;;;;;;;1.88;0.65;;;11.70;99.90;;;;;;5016561;28;20045;-69
2023/01/04 12:36:14;;;;;;;2.67;0.80;;;11.70;99.90;;;;;;5015929;28;20038;-69
2023/01/04 12:38:54;;;;;;;3.17;0.40;;;12.20;99.90;;;;;;5034139;28;20049;-69
2023/01/04 12:41:59;;;;;;;2.08;0.60;;;11.70;99.90;;;;;;5016605;28;20041;-69
2023/01/04 12:44:42;;;;;;;2.47;0.60;;;11.80;99.90;;;;;;4988577;28;20045;-68
2023/01/04 12:50:11;;;;;;;3.75;0.60;;;11.80;99.90;;;;;;5016506;28;20500;-72
2023/01/04 12:52:45;;;;;;;3.40;0.70;;;12.00;99.90;;;;;;5016246;28;20041;-68
2023/01/04 12:55:32;;;;;;;1.15;0.43;;;11.80;99.90;;;;;;5016141;28;20120;-69
2023/01/04 12:58:26;;;;;;;0.40;0.30;;;11.80;99.90;;;;;;5016403;28;20073;-69
2023/01/04 13:00:52;;;;;;;3.78;0.80;;;11.80;99.90;;;;;;4999781;28;20041;-69
2023/01/04 13:03:17;;;;;;;4.00;0.57;;;11.90;99.90;;;;;;4999714;28;20072;-69
2023/01/04 13:05:54;;;;;;;1.17;0.40;;;12.00;99.90;;;;;;5015742;28;20413;-69
2023/01/04 13:08:20;;;;;;;2.35;0.85;;;12.30;99.90;;;;;;5015886;28;20059;-68
2023/01/04 13:10:45;;;;;;;5.88;0.75;;;11.90;99.90;;;;;;5015894;28;20415;-69
2023/01/04 13:13:11;;;;;;;4.57;0.68;;;12.60;99.90;;;;;;5015859;28;20072;-69
2023/01/04 13:16:00;;;;;;;3.28;0.63;;;11.80;99.90;;;;;;5015819;28;20048;-68
2023/01/04 13:18:35;;;;;;;0.68;0.32;;;11.80;99.90;;;;;;5015897;28;20045;-68
2023/01/04 13:21:08;;;;;;;4.72;0.70;;;11.80;99.90;;;;;;5033352;28;20033;-69
2023/01/04 13:23:34;;;;;;;1.98;0.60;;;12.10;99.90;;;;;;5015898;28;20432;-69
2023/01/04 13:26:31;;;;;;;1.30;0.40;;;11.80;99.90;;;;;;5015537;28;20124;-69
2023/01/04 13:29:12;;;;;;;7.63;1.30;;;11.80;99.90;;;;;;5015580;28;20037;-69
2023/01/04 13:31:44;;;;;;;2.63;0.63;;;11.80;99.90;;;;;;4998989;28;20053;-69
2023/01/04 13:34:47;;;;;;;3.50;0.93;;;11.80;99.90;;;;;;5033397;28;20049;-69
2023/01/04 13:37:39;;;;;;;4.55;1.08;;;11.90;99.90;;;;;;5013004;28;20061;-69
2023/01/04 13:40:25;;;;;;;9.57;1.42;;;11.90;99.90;;;;;;5022811;28;20401;-69
2023/01/04 13:43:14;;;;;;;8.55;1.58;;;11.90;99.90;;;;;;5015450;28;20037;-69
2023/01/04 13:46:09;;;;;;;4.00;1.63;;;11.90;99.90;;;;;;5032910;28;20044;-69
2023/01/04 13:48:38;;;;;;;5.15;1.30;;;11.90;99.90;;;;;;5015154;28;20076;-68
2023/01/04 13:51:13;;;;;;;10.00;2.28;;;11.80;99.90;;;;;;5015151;28;20378;-69
2023/01/04 13:53:39;;;;;;;6.50;1.30;;;11.90;99.90;;;;;;5033050;28;20485;-69
2023/01/04 13:56:16;;;;;;;8.70;2.22;;;11.90;99.90;;;;;;5033035;28;20469;-69
2023/01/04 13:58:42;;;;;;;9.57;1.15;;;11.90;99.90;;;;;;5015299;28;20133;-69